Time;durP1;ratioP1;P1;durP2;ratioP2;P2;SDS_P1;SDS_P2;PMS_P1;PMS_P2;Temp;Humidity;BMP_temperature;BMP_pressure;BME280_temperature;BME280_humidity;BME280_pressure;Samples;Min_cycle;Max_cycle;Signal;HPM_P1;HPM_P2
2021/04/14 00:01:21;;;;;;;4.20;2.88;;;;;;;-0.07;100.00;101500.34;5079191;28;20303;-81
2021/04/14 00:04:26;;;;;;;6.40;3.03;;;;;;;-0.15;100.00;101497.81;5080074;28;20054;-81
2021/04/14 00:07:29;;;;;;;6.35;4.03;;;;;;;-0.22;100.00;101498.47;5081107;28;20050;-81
2021/04/14 00:10:36;;;;;;;4.82;3.42;;;;;;;-0.21;100.00;101500.06;5067502;28;20039;-80
2021/04/14 00:13:42;;;;;;;6.65;4.22;;;;;;;-0.23;100.00;101496.91;5076820;28;20031;-81
2021/04/14 00:16:47;;;;;;;2.67;2.58;;;;;;;-0.27;100.00;101501.53;5063816;28;20289;-81
2021/04/14 00:19:50;;;;;;;2.55;2.42;;;;;;;-0.29;100.00;101503.81;5076903;28;20043;-81
2021/04/14 00:22:54;;;;;;;5.18;2.53;;;;;;;-0.34;100.00;101498.63;5078156;28;20717;-81
2021/04/14 00:25:58;;;;;;;4.38;3.65;;;;;;;-0.40;100.00;101502.81;5060009;28;20047;-81
2021/04/14 00:29:02;;;;;;;6.20;3.90;;;;;;;-0.44;100.00;101488.28;5059720;28;20031;-81
2021/04/14 00:32:05;;;;;;;11.43;3.05;;;;;;;-0.47;100.00;101490.94;5058271;28;20039;-81
2021/04/14 00:35:09;;;;;;;3.20;2.90;;;;;;;-0.49;100.00;101499.50;5062617;28;20028;-79
2021/04/14 00:38:15;;;;;;;2.22;2.15;;;;;;;-0.58;100.00;101493.47;5053231;28;20043;-80
2021/04/14 00:41:19;;;;;;;4.38;2.53;;;;;;;-0.62;100.00;101489.88;5052513;28;20297;-80
2021/04/14 00:44:23;;;;;;;2.95;2.70;;;;;;;-0.65;100.00;101490.56;5059934;28;21038;-79
2021/04/14 00:47:27;;;;;;;8.77;2.80;;;;;;;-0.66;100.00;101489.00;5046187;28;20039;-80
2021/04/14 00:50:31;;;;;;;6.75;3.42;;;;;;;-0.69;100.00;101489.72;5060315;28;20071;-80
2021/04/14 00:53:35;;;;;;;2.38;2.25;;;;;;;-0.71;100.00;101492.00;5045093;28;20062;-80
2021/04/14 00:56:39;;;;;;;10.68;4.95;;;;;;;-0.75;100.00;101493.88;5055578;28;20676;-79
2021/04/14 00:59:43;;;;;;;6.38;3.17;;;;;;;-0.80;100.00;101484.03;5055973;28;20349;-80
2021/04/14 01:02:46;;;;;;;4.03;3.45;;;;;;;-0.83;100.00;101483.97;5040343;28;20051;-80
2021/04/14 01:05:53;;;;;;;3.13;2.92;;;;;;;-0.88;100.00;101492.44;5054890;28;20463;-79
2021/04/14 01:08:58;;;;;;;5.80;3.15;;;;;;;-0.93;100.00;101489.97;5055863;28;20040;-79
2021/04/14 01:12:02;;;;;;;5.18;2.72;;;;;;;-0.98;100.00;101482.06;5057002;28;20404;-79
2021/04/14 01:15:09;;;;;;;3.17;2.50;;;;;;;-1.02;100.00;101486.69;5055677;28;20413;-79
2021/04/14 01:18:16;;;;;;;4.60;2.28;;;;;;;-1.07;100.00;101495.16;5056039;28;20031;-79
2021/04/14 01:21:38;;;;;;;5.85;3.40;;;;;;;-1.13;100.00;101491.91;5044461;28;20408;-82
2021/04/14 01:24:42;;;;;;;2.33;2.22;;;;;;;-1.15;100.00;101493.41;5067406;28;20220;-81
2021/04/14 01:27:45;;;;;;;2.58;2.42;;;;;;;-1.17;100.00;101490.25;5074762;28;20051;-82
2021/04/14 01:30:51;;;;;;;2.88;2.75;;;;;;;-1.19;100.00;101489.81;5064878;28;20400;-81
2021/04/14 01:33:55;;;;;;;3.80;2.10;;;;;;;-1.21;100.00;101497.56;5076633;28;20551;-79
2021/04/14 01:36:59;;;;;;;3.55;2.13;;;;;;;-1.26;100.00;101495.91;5082358;28;20046;-80
2021/04/14 01:40:03;;;;;;;1.98;1.95;;;;;;;-1.31;100.00;101496.16;5113558;28;20047;-80
2021/04/14 01:43:07;;;;;;;4.78;2.70;;;;;;;-1.34;100.00;101501.56;5113293;28;20055;-80
2021/04/14 01:46:11;;;;;;;9.18;3.85;;;;;;;-1.37;100.00;101496.78;5113643;28;20051;-80
2021/04/14 01:49:14;;;;;;;6.22;3.42;;;;;;;-1.35;100.00;101499.97;5113360;28;20051;-82
2021/04/14 01:52:17;;;;;;;6.95;4.57;;;;;;;-1.31;100.00;101500.84;5100485;28;20113;-80
2021/04/14 01:55:22;;;;;;;9.35;3.25;;;;;;;-1.28;100.00;101494.66;5113574;28;20038;-82
2021/04/14 01:58:28;;;;;;;2.83;2.65;;;;;;;-1.25;100.00;101505.69;5112566;28;20427;-79
2021/04/14 02:01:31;;;;;;;3.08;2.90;;;;;;;-1.22;100.00;101504.19;5113476;28;20043;-79
2021/04/14 02:04:35;;;;;;;3.15;2.95;;;;;;;-1.17;100.00;101501.19;5112614;28;20504;-80
2021/04/14 02:07:39;;;;;;;4.15;2.55;;;;;;;-1.15;100.00;101505.13;5099776;28;20511;-82
2021/04/14 02:10:42;;;;;;;3.78;3.13;;;;;;;-1.10;100.00;101501.31;5112906;28;20460;-80
2021/04/14 02:13:45;;;;;;;3.28;2.97;;;;;;;-1.02;100.00;101497.63;5112711;28;20047;-79
2021/04/14 02:16:49;;;;;;;7.60;3.35;;;;;;;-0.94;100.00;101502.06;5112569;28;20051;-82
2021/04/14 02:19:52;;;;;;;2.97;2.33;;;;;;;-0.88;100.00;101503.38;5112807;28;20047;-80
2021/04/14 02:22:56;;;;;;;3.53;2.97;;;;;;;-0.82;100.00;101512.88;5112497;28;20059;-79
2021/04/14 02:26:03;;;;;;;2.92;2.70;;;;;;;-0.83;100.00;101501.16;5092748;28;20043;-80
2021/04/14 02:29:07;;;;;;;3.25;3.05;;;;;;;-0.81;100.00;101509.00;5092040;28;20067;-82
2021/04/14 02:32:10;;;;;;;2.33;2.17;;;;;;;-0.78;100.00;101508.31;5079789;28;20502;-80
2021/04/14 02:35:13;;;;;;;5.20;3.13;;;;;;;-0.82;100.00;101510.94;5079925;28;20047;-80
2021/04/14 02:38:18;;;;;;;3.55;3.25;;;;;;;-0.87;100.00;101504.97;5079723;28;20396;-80
2021/04/14 02:41:22;;;;;;;2.33;2.20;;;;;;;-0.87;100.00;101513.19;5079357;28;20047;-81
2021/04/14 02:44:26;;;;;;;2.53;2.42;;;;;;;-0.90;100.00;101511.94;5092077;28;20434;-80
2021/04/14 02:47:29;;;;;;;5.22;3.80;;;;;;;-0.94;100.00;101507.53;5091752;28;20047;-79
2021/04/14 02:50:33;;;;;;;5.00;1.60;;;;;;;-0.97;100.00;101510.97;5092206;28;20106;-79
2021/04/14 02:53:37;;;;;;;2.80;2.63;;;;;;;-0.95;100.00;101512.22;5091497;28;20046;-80
2021/04/14 02:56:40;;;;;;;2.53;2.38;;;;;;;-0.93;100.00;101506.38;5092306;28;20047;-80
2021/04/14 02:59:44;;;;;;;2.53;2.30;;;;;;;-0.92;100.00;101503.31;5092231;28;20051;-80
2021/04/14 03:02:47;;;;;;;3.10;2.88;;;;;;;-0.91;100.00;101510.34;5078934;28;20047;-79
2021/04/14 03:05:51;;;;;;;3.67;3.45;;;;;;;-0.87;100.00;101510.44;5091781;28;20043;-82
2021/04/14 03:08:54;;;;;;;3.75;3.40;;;;;;;-0.85;100.00;101519.06;5092023;28;20055;-82
2021/04/14 03:11:57;;;;;;;3.35;2.75;;;;;;;-0.79;100.00;101512.16;5082253;28;20511;-82
2021/04/14 03:15:00;;;;;;;3.78;2.97;;;;;;;-0.78;100.00;101513.78;5083951;28;20043;-81
2021/04/14 03:18:04;;;;;;;4.65;2.47;;;;;;;-0.75;100.00;101507.56;5083210;28;20039;-82
2021/04/14 03:21:07;;;;;;;7.13;2.80;;;;;;;-0.71;100.00;101511.16;5096693;28;20051;-82
2021/04/14 03:24:11;;;;;;;1.98;1.88;;;;;;;-0.69;100.00;101511.59;5089558;28;20407;-81
2021/04/14 03:27:14;;;;;;;6.28;3.88;;;;;;;-0.69;100.00;101508.84;5116779;28;20046;-81
2021/04/14 03:30:18;;;;;;;4.93;2.60;;;;;;;-0.68;100.00;101512.41;5116712;28;20388;-82
2021/04/14 03:33:22;;;;;;;30.52;3.95;;;;;;;-0.72;100.00;101509.59;5116476;28;20495;-82
2021/04/14 03:36:25;;;;;;;26.02;3.13;;;;;;;-0.72;100.00;101506.84;5116764;28;20039;-82
2021/04/14 03:39:29;;;;;;;4.60;3.63;;;;;;;-0.73;100.00;101508.00;5116453;28;20052;-82
2021/04/14 03:42:33;;;;;;;4.53;2.70;;;;;;;-0.73;100.00;101521.66;5116130;28;20538;-82
2021/04/14 03:45:49;;;;;;;3.20;3.00;;;;;;;-0.74;100.00;101514.63;5116721;28;20062;-81
2021/04/14 03:48:53;;;;;;;10.50;2.88;;;;;;;-0.79;100.00;101507.50;5103669;28;20066;-81
2021/04/14 03:51:58;;;;;;;2.88;2.53;;;;;;;-0.81;100.00;101509.00;5116536;28;20031;-80
2021/04/14 03:55:03;;;;;;;5.93;2.70;;;;;;;-0.82;100.00;101504.66;5103833;28;20046;-82
2021/04/14 03:58:07;;;;;;;8.25;2.92;;;;;;;-0.81;100.00;101509.00;5116142;28;20050;-82
2021/04/14 04:01:15;;;;;;;4.00;3.17;;;;;;;-0.85;100.00;101506.22;5103861;28;20043;-81
2021/04/14 04:04:18;;;;;;;2.20;2.10;;;;;;;-0.86;100.00;101509.28;5115899;28;20503;-81
2021/04/14 04:07:21;;;;;;;2.30;2.20;;;;;;;-0.89;100.00;101504.53;5115685;28;20058;-82
2021/04/14 04:10:25;;;;;;;4.05;3.17;;;;;;;-0.93;100.00;101512.66;5116560;28;20054;-81
2021/04/14 04:13:30;;;;;;;2.88;2.72;;;;;;;-0.92;100.00;101510.72;5103160;28;20505;-81
2021/04/14 04:16:33;;;;;;;2.63;2.40;;;;;;;-0.99;100.00;101510.56;5115968;28;20636;-81
2021/04/14 04:19:39;;;;;;;5.68;3.65;;;;;;;-1.06;100.00;101508.44;5115370;28;20054;-82
2021/04/14 04:22:42;;;;;;;2.03;2.03;;;;;;;-1.13;100.00;101519.25;5102846;28;20063;-81
2021/04/14 04:25:45;;;;;;;2.30;2.10;;;;;;;-1.20;100.00;101518.28;5096139;28;20051;-82
2021/04/14 04:28:50;;;;;;;5.68;3.15;;;;;;;-1.29;100.00;101510.28;5082542;28;20059;-81
2021/04/14 04:31:53;;;;;;;7.47;3.30;;;;;;;-1.33;100.00;101519.53;5082022;28;20054;-81
2021/04/14 04:34:56;;;;;;;2.00;2.00;;;;;;;-1.37;100.00;101518.66;5083173;28;20039;-82
2021/04/14 04:38:00;;;;;;;6.57;2.83;;;;;;;-1.43;100.00;101520.88;5094975;28;20043;-82
2021/04/14 04:41:04;;;;;;;3.70;3.00;;;;;;;-1.52;100.00;101518.31;5082735;28;20412;-82
2021/04/14 04:44:07;;;;;;;2.72;2.47;;;;;;;-1.56;100.00;101527.59;5094608;28;20055;-79
2021/04/14 04:47:11;;;;;;;3.03;2.50;;;;;;;-1.62;100.00;101529.75;5095115;28;20130;-79
2021/04/14 04:50:15;;;;;;;3.72;2.60;;;;;;;-1.70;100.00;101538.94;5083242;28;20049;-79
2021/04/14 04:53:22;;;;;;;2.40;2.30;;;;;;;-1.74;100.00;101529.88;5094557;28;20043;-79
2021/04/14 04:56:25;;;;;;;4.00;2.63;;;;;;;-1.77;100.00;101538.75;5094637;28;20500;-79
2021/04/14 04:59:29;;;;;;;9.93;2.53;;;;;;;-1.78;100.00;101537.19;5094778;28;20058;-79
2021/04/14 05:02:32;;;;;;;3.17;2.95;;;;;;;-1.84;100.00;101541.28;5082005;28;20075;-79
2021/04/14 05:05:38;;;;;;;3.65;3.33;;;;;;;-1.85;100.00;101549.84;5094723;28;20063;-81
2021/04/14 05:08:42;;;;;;;2.97;2.53;;;;;;;-1.89;100.00;101544.28;5094189;28;20050;-81
2021/04/14 05:11:49;;;;;;;2.80;2.70;;;;;;;-1.90;100.00;101550.88;5082015;28;20070;-80
2021/04/14 05:14:52;;;;;;;2.10;2.05;;;;;;;-1.93;100.00;101546.16;5094746;28;20050;-81
2021/04/14 05:17:56;;;;;;;3.63;3.33;;;;;;;-1.91;100.00;101552.03;5095440;28;20384;-81
2021/04/14 05:21:01;;;;;;;3.45;2.83;;;;;;;-1.92;100.00;101553.16;5114676;28;20380;-79
2021/04/14 05:24:04;;;;;;;4.80;3.22;;;;;;;-1.93;100.00;101557.06;5114667;28;20050;-80
2021/04/14 05:27:08;;;;;;;3.25;3.05;;;;;;;-1.96;100.00;101546.03;5102480;28;20062;-80
2021/04/14 05:30:13;;;;;;;2.65;2.58;;;;;;;-1.97;100.00;101553.41;5114814;28;20050;-78
2021/04/14 05:33:18;;;;;;;5.65;2.53;;;;;;;-1.99;100.00;101555.72;5114474;28;20058;-78
2021/04/14 05:36:22;;;;;;;1.90;1.90;;;;;;;-2.03;100.00;101556.75;5114685;28;20440;-77
2021/04/14 05:39:26;;;;;;;2.13;2.10;;;;;;;-2.01;100.00;101559.91;5101618;28;20046;-78
2021/04/14 05:42:29;;;;;;;6.10;3.25;;;;;;;-2.02;100.00;101567.34;5114234;28;20043;-78
2021/04/14 05:45:33;;;;;;;10.38;4.50;;;;;;;-1.99;100.00;101571.31;5114352;28;20050;-79
2021/04/14 05:48:41;;;;;;;7.88;3.17;;;;;;;-1.95;100.00;101575.69;5114448;28;20036;-78
2021/04/14 05:51:46;;;;;;;6.72;3.85;;;;;;;-1.97;100.00;101577.22;5113464;28;20046;-79
2021/04/14 05:54:50;;;;;;;4.40;3.90;;;;;;;-1.99;100.00;101585.72;5113729;28;20510;-79
2021/04/14 05:57:53;;;;;;;10.65;5.95;;;;;;;-1.94;100.00;101577.28;5114486;28;20046;-79
2021/04/14 06:00:57;;;;;;;16.80;10.77;;;;;;;-1.94;100.00;101584.69;5094490;28;20039;-79
2021/04/14 06:04:00;;;;;;;18.38;13.18;;;;;;;-1.93;100.00;101583.56;5094003;28;20040;-78
2021/04/14 06:07:04;;;;;;;17.45;11.82;;;;;;;-1.89;100.00;101590.69;5093720;28;20040;-78
2021/04/14 06:10:08;;;;;;;18.27;9.77;;;;;;;-1.84;100.00;101589.66;5093700;28;20036;-79
2021/04/14 06:13:12;;;;;;;9.40;6.43;;;;;;;-1.79;100.00;101590.19;5093672;28;20036;-78
2021/04/14 06:16:16;;;;;;;7.80;6.95;;;;;;;-1.71;100.00;101586.50;5093556;28;20039;-78
2021/04/14 06:19:19;;;;;;;12.63;7.03;;;;;;;-1.62;100.00;101589.84;5083626;28;20046;-79
2021/04/14 06:22:23;;;;;;;24.75;6.75;;;;;;;-1.52;100.00;101604.94;5100690;28;20384;-78
2021/04/14 06:25:32;;;;;;;7.47;3.70;;;;;;;-1.46;100.00;101594.53;5096735;28;20036;-79
2021/04/14 06:28:37;;;;;;;6.43;3.70;;;;;;;-1.36;100.00;101607.66;5092780;28;20093;-79
2021/04/14 06:31:41;;;;;;;4.80;2.75;;;;;;;-1.28;100.00;101603.97;5087997;28;20043;-78
2021/04/14 06:34:44;;;;;;;5.05;3.83;;;;;;;-1.19;100.00;101608.09;5092924;28;20047;-79
2021/04/14 06:37:48;;;;;;;3.75;3.55;;;;;;;-1.13;100.00;101606.72;5092904;28;20046;-78
2021/04/14 06:41:33;;;;;;;2.83;2.63;;;;;;;-1.03;100.00;101611.63;5093041;28;20059;-78
2021/04/14 06:44:52;;;;;;;2.17;2.08;;;;;;;-0.92;100.00;101614.63;5092727;28;20054;-79
2021/04/14 06:48:11;;;;;;;4.15;3.13;;;;;;;-0.81;100.00;101621.13;5092064;28;20038;-79
2021/04/14 06:51:14;;;;;;;5.25;3.08;;;;;;;-0.71;100.00;101617.06;5080138;28;20055;-78
2021/04/14 06:54:40;;;;;;;3.80;3.42;;;;;;;-0.57;100.00;101612.69;5092642;28;20047;-79
2021/04/14 06:57:54;;;;;;;3.83;3.17;;;;;;;-0.41;100.00;101616.16;5092470;28;20102;-78
2021/04/14 07:01:03;;;;;;;8.20;3.90;;;;;;;-0.24;100.00;101610.28;5093146;28;20051;-79
2021/04/14 07:04:13;;;;;;;7.65;4.47;;;;;;;-0.06;100.00;101616.91;5107595;28;20047;-79
2021/04/14 07:07:27;;;;;;;2.75;2.60;;;;;;;0.13;100.00;101609.84;5106937;28;20039;-79
2021/04/14 07:10:33;;;;;;;3.70;3.22;;;;;;;0.32;100.00;101618.03;5103245;28;20495;-78
2021/04/14 07:13:37;;;;;;;5.03;3.58;;;;;;;0.51;100.00;101615.25;5083602;28;20506;-79
2021/04/14 07:17:27;;;;;;;13.00;3.53;;;;;;;0.67;100.00;101603.00;5100330;28;20035;-78
2021/04/14 07:20:41;;;;;;;7.85;5.07;;;;;;;0.92;100.00;101605.38;5009459;28;20044;-79
2021/04/14 07:23:59;;;;;;;8.90;4.25;;;;;;;1.10;100.00;101600.97;5015477;28;20052;-78
2021/04/14 07:27:24;;;;;;;8.07;3.47;;;;;;;1.33;100.00;101602.50;5111656;28;20408;-78
2021/04/14 07:30:34;;;;;;;2.63;2.42;;;;;;;1.57;100.00;101603.19;5107549;28;21010;-78
2021/04/14 07:33:46;;;;;;;4.85;3.42;;;;;;;1.77;100.00;101596.41;5095701;28;20055;-78
2021/04/14 07:37:11;;;;;;;6.60;2.80;;;;;;;2.01;100.00;101595.94;5091780;28;20522;-79
2021/04/14 07:40:22;;;;;;;4.63;3.60;;;;;;;2.24;100.00;101599.31;5088595;28;20051;-78
2021/04/14 07:43:35;;;;;;;4.03;3.10;;;;;;;2.33;100.00;101602.56;5098751;28;20062;-78
2021/04/14 07:46:40;;;;;;;9.13;3.58;;;;;;;2.35;100.00;101600.22;5112370;28;20039;-78
2021/04/14 07:49:44;;;;;;;5.05;3.20;;;;;;;2.48;100.00;101604.28;5112201;28;20048;-79
2021/04/14 07:52:47;;;;;;;4.68;3.22;;;;;;;2.63;100.00;101599.69;5112184;28;20054;-78
2021/04/14 07:56:03;;;;;;;4.85;3.15;;;;;;;2.86;100.00;101592.03;5112174;28;20507;-79
2021/04/14 07:59:10;;;;;;;11.40;4.57;;;;;;;3.17;100.00;101596.19;5103222;28;20395;-79
2021/04/14 08:02:26;;;;;;;8.63;3.58;;;;;;;3.48;100.00;101596.41;5115805;28;20506;-78
2021/04/14 08:05:33;;;;;;;3.25;3.05;;;;;;;3.80;100.00;101582.78;5113977;28;20047;-78
2021/04/14 08:08:38;;;;;;;7.30;3.83;;;;;;;4.08;100.00;101587.63;5116013;28;20502;-79
2021/04/14 08:11:43;;;;;;;17.60;5.32;;;;;;;4.38;100.00;101588.88;5116131;28;20046;-79
2021/04/14 08:14:46;;;;;;;5.60;2.97;;;;;;;4.72;100.00;101591.31;5116010;28;20051;-78
2021/04/14 08:17:49;;;;;;;7.00;3.28;;;;;;;4.99;100.00;101587.75;5102917;28;20062;-78
2021/04/14 08:21:10;;;;;;;13.57;3.97;;;;;;;5.26;100.00;101577.84;5115813;28;20384;-79
2021/04/14 08:24:47;;;;;;;8.30;3.17;;;;;;;5.50;100.00;101576.19;5115726;28;20050;-79
2021/04/14 08:27:54;;;;;;;6.20;3.42;;;;;;;5.76;100.00;101583.25;5110360;28;20059;-79
2021/04/14 08:31:36;;;;;;;8.00;4.43;;;;;;;6.07;100.00;101588.66;5094733;28;20404;-80
2021/04/14 08:34:39;;;;;;;6.70;4.20;;;;;;;6.34;100.00;101585.38;5017982;28;20048;-79
2021/04/14 08:37:43;;;;;;;5.95;2.28;;;;;;;6.55;100.00;101579.69;5094865;28;20047;-80
2021/04/14 08:40:57;;;;;;;8.43;2.90;;;;;;;6.71;100.00;101582.75;5095522;28;20051;-80
2021/04/14 08:44:08;;;;;;;5.32;2.72;;;;;;;6.89;100.00;101589.69;5094172;28;20047;-79
2021/04/14 08:47:17;;;;;;;7.32;3.33;;;;;;;7.03;100.00;101588.81;5094046;28;20058;-80
2021/04/14 08:50:28;;;;;;;9.68;3.25;;;;;;;7.23;100.00;101587.03;5094737;28;20043;-79
2021/04/14 08:53:38;;;;;;;3.15;1.55;;;;;;;7.42;100.00;101594.75;5094116;28;20047;-80
2021/04/14 08:56:42;;;;;;;7.63;3.05;;;;;;;7.56;100.00;101583.50;5094832;28;20059;-80
2021/04/14 08:59:46;;;;;;;5.72;2.95;;;;;;;7.79;100.00;101591.19;5095113;28;20059;-80
2021/04/14 09:02:57;;;;;;;4.22;2.17;;;;;;;7.99;100.00;101583.03;5094103;28;20059;-79
2021/04/14 09:06:02;;;;;;;7.53;2.33;;;;;;;8.15;100.00;101574.84;5093479;28;20051;-80
2021/04/14 09:09:10;;;;;;;2.85;1.60;;;;;;;8.30;100.00;101588.16;5093656;28;20401;-80
2021/04/14 09:12:15;;;;;;;2.47;1.67;;;;;;;8.49;100.00;101581.13;5094309;28;20051;-81
2021/04/14 09:15:19;;;;;;;13.05;1.80;;;;;;;8.62;100.00;101581.38;5093856;28;20047;-81
2021/04/14 09:18:33;;;;;;;3.35;1.55;;;;;;;8.74;100.00;101584.34;5093859;28;20046;-81
2021/04/14 09:21:46;;;;;;;5.45;1.08;;;;;;;9.03;100.00;101590.97;5094562;28;20047;-79
2021/04/14 09:24:55;;;;;;;2.70;1.48;;;;;;;9.16;100.00;101589.16;5105765;28;20052;-80
2021/04/14 09:28:01;;;;;;;6.35;1.55;;;;;;;9.23;100.00;101585.47;5102131;28;20042;-79
2021/04/14 09:31:15;;;;;;;3.85;1.75;;;;;;;9.55;100.00;101588.47;5102183;28;20051;-81
2021/04/14 09:34:21;;;;;;;2.55;1.60;;;;;;;9.61;100.00;101597.09;5101998;28;20042;-83
2021/04/14 09:37:32;;;;;;;4.50;1.73;;;;;;;9.75;100.00;101596.81;5102124;28;20062;-81
2021/04/14 09:40:37;;;;;;;16.15;2.35;;;;;;;9.99;100.00;101601.09;5102358;28;20054;-81
2021/04/14 09:43:44;;;;;;;4.18;1.27;;;;;;;9.78;100.00;101596.75;5114778;28;20104;-82
2021/04/14 09:46:55;;;;;;;1.60;1.38;;;;;;;9.59;100.00;101596.75;5101825;28;20046;-82
2021/04/14 09:50:18;;;;;;;3.92;1.60;;;;;;;9.56;100.00;101594.81;5102071;28;20434;-82
2021/04/14 09:53:26;;;;;;;6.05;1.65;;;;;;;9.66;100.00;101593.81;5114462;28;20050;-82
2021/04/14 09:56:31;;;;;;;2.88;1.52;;;;;;;9.97;100.00;101592.41;5114414;28;20411;-83
2021/04/14 09:59:38;;;;;;;1.67;0.75;;;;;;;10.27;100.00;101589.41;5101631;28;20042;-81
2021/04/14 10:02:44;;;;;;;3.00;1.00;;;;;;;10.75;100.00;101579.53;5101166;28;20712;-82
2021/04/14 10:05:48;;;;;;;4.00;1.15;;;;;;;11.18;100.00;101577.25;5101336;28;20042;-81
2021/04/14 10:08:59;;;;;;;2.88;1.80;;;;;;;11.65;100.00;101575.56;5113607;28;20049;-82
2021/04/14 10:12:26;;;;;;;3.22;1.30;;;;;;;11.93;100.00;101580.38;5101478;28;20062;-85
2021/04/14 10:15:35;;;;;;;13.27;2.30;;;;;;;11.96;100.00;101593.47;5113859;28;20038;-84
2021/04/14 10:18:42;;;;;;;1.42;1.00;;;;;;;11.89;100.00;101588.06;5100984;28;20043;-79
2021/04/14 10:21:46;;;;;;;1.60;0.93;;;;;;;11.83;100.00;101587.06;5101106;28;20043;-81
2021/04/14 10:25:19;;;;;;;1.35;0.80;;;;;;;11.77;100.00;101586.03;5089478;28;20059;-81
2021/04/14 10:28:26;;;;;;;1.75;0.73;;;;;;;11.48;100.00;101590.78;5081018;28;20523;-82
2021/04/14 10:31:33;;;;;;;1.17;1.00;;;;;;;10.96;100.00;101588.16;5080501;28;20051;-78
2021/04/14 10:34:36;;;;;;;4.50;1.08;;;;;;;10.73;100.00;101591.13;5080414;28;20062;-77
2021/04/14 10:37:52;;;;;;;2.50;1.20;;;;;;;10.48;100.00;101590.94;5080984;28;20040;-80
2021/04/14 10:40:56;;;;;;;2.83;1.23;;;;;;;10.22;100.00;101592.69;5080715;28;20404;-82
2021/04/14 10:44:00;;;;;;;4.15;1.83;;;;;;;9.93;100.00;101586.13;5093066;28;20047;-79
2021/04/14 10:47:11;;;;;;;2.17;0.50;;;;;;;9.68;100.00;101594.19;5092784;28;20047;-79
2021/04/14 10:50:19;;;;;;;0.93;0.60;;;;;;;9.42;100.00;101589.53;5081529;28;20070;-80
2021/04/14 10:53:24;;;;;;;2.33;0.70;;;;;;;9.29;100.00;101589.34;5093186;28;20509;-80
2021/04/14 10:56:31;;;;;;;0.60;0.38;;;;;;;9.65;100.00;101586.69;5093846;28;20047;-80
2021/04/14 10:59:35;;;;;;;1.70;1.50;;;;;;;10.30;100.00;101582.97;5093579;28;20511;-80
2021/04/14 11:02:43;;;;;;;2.47;0.90;;;;;;;10.57;100.00;101575.16;5097649;28;20051;-80
2021/04/14 11:05:55;;;;;;;1.10;0.60;;;;;;;11.19;100.00;101573.25;5093014;28;20043;-81
2021/04/14 11:08:58;;;;;;;;;;;;;;;11.50;100.00;101576.41;5093192;28;20050;-81
2021/04/14 11:12:07;;;;;;;3.85;1.35;;;;;;;11.38;100.00;101566.75;5081208;28;19916;-80
2021/04/14 11:15:42;;;;;;;1.70;0.88;;;;;;;11.17;100.00;101572.91;5092597;28;20059;-81
2021/04/14 11:18:47;;;;;;;1.65;0.88;;;;;;;10.97;100.00;101578.59;5080052;28;20396;-80
2021/04/14 11:22:21;;;;;;;2.28;1.00;;;;;;;10.81;100.00;101577.78;5080383;28;20067;-79
2021/04/14 11:25:33;;;;;;;3.83;1.15;;;;;;;11.23;100.00;101571.16;5109452;28;20046;-86
2021/04/14 11:28:43;;;;;;;3.65;1.25;;;;;;;11.42;100.00;101573.03;5111735;28;20051;-79
2021/04/14 11:31:50;;;;;;;2.47;0.98;;;;;;;11.28;100.00;101571.38;5113135;28;20332;-77
2021/04/14 11:35:03;;;;;;;2.75;1.50;;;;;;;11.60;100.00;101570.53;5116923;28;20047;-78
2021/04/14 11:38:27;;;;;;;3.40;1.73;;;;;;;12.09;100.00;101563.56;5116262;28;20047;-78
2021/04/14 11:41:33;;;;;;;1.73;0.98;;;;;;;11.77;100.00;101562.91;5116454;28;20039;-77
2021/04/14 11:44:43;;;;;;;6.25;2.10;;;;;;;11.56;100.00;101567.06;5104253;28;20069;-78
2021/04/14 11:47:47;;;;;;;2.83;1.70;;;;;;;11.46;100.00;101570.16;5116488;28;20075;-77
2021/04/14 11:50:50;;;;;;;2.58;1.77;;;;;;;11.31;100.00;101567.72;5116774;28;20049;-79
2021/04/14 11:53:58;;;;;;;1.58;0.90;;;;;;;11.13;100.00;101572.97;5103680;28;20503;-78
2021/04/14 11:57:02;;;;;;;2.17;1.42;;;;;;;10.93;100.00;101563.97;5116636;28;20498;-80
2021/04/14 12:03:37;;;;;;;2.53;0.85;;;;;;;10.89;100.00;101573.63;4947715;28;20070;-76
2021/04/14 12:06:41;;;;;;;3.17;2.03;;;;;;;10.85;100.00;101561.78;4952944;28;20421;-76
2021/04/14 12:09:44;;;;;;;0.98;0.88;;;;;;;10.89;100.00;101571.63;4936520;29;20078;-75
2021/04/14 12:12:50;;;;;;;2.85;1.38;;;;;;;11.02;100.00;101566.13;4937597;29;20410;-76
2021/04/14 12:15:54;;;;;;;2.15;1.27;;;;;;;11.07;100.00;101571.16;4937725;29;20054;-76
2021/04/14 12:18:57;;;;;;;2.13;0.93;;;;;;;11.08;100.00;101567.16;4937782;29;20050;-76
2021/04/14 12:22:01;;;;;;;3.47;1.27;;;;;;;10.96;100.00;101562.31;4938266;29;20466;-76
2021/04/14 13:17:53;;;;;;;4.07;1.73;;;;;;;11.38;91.00;101555.59;5068078;27;20364;-74
2021/04/14 13:21:03;;;;;;;2.00;1.23;;;;;;;11.77;93.96;101560.91;5074838;28;20060;-73
2021/04/14 13:24:07;;;;;;;4.15;1.73;;;;;;;12.23;90.90;101558.75;5066987;28;20063;-75
2021/04/14 13:27:28;;;;;;;1.38;0.98;;;;;;;12.46;91.21;101555.63;5066253;28;20064;-74
2021/04/14 13:30:52;;;;;;;;;;;;;;;12.30;88.71;101558.56;5046832;28;20088;-73
2021/04/14 13:34:05;;;;;;;2.00;0.98;;;;;;;11.98;82.55;101553.91;5063954;28;19921;-73
2021/04/14 13:37:18;;;;;;;4.72;1.27;;;;;;;11.86;83.27;101552.69;5066400;28;20179;-73
2021/04/14 13:40:28;;;;;;;2.30;0.82;;;;;;;11.95;82.03;101549.25;5065429;28;20079;-74
2021/04/14 13:43:37;;;;;;;19.17;3.05;;;;;;;11.90;82.71;101539.41;5066442;28;20055;-74
2021/04/14 13:47:03;;;;;;;3.38;1.15;;;;;;;11.95;88.43;101550.00;5074384;27;20064;-74
2021/04/14 13:50:36;;;;;;;1.20;0.88;;;;;;;12.11;80.75;101547.13;5066173;28;20064;-74
2021/04/14 13:53:41;;;;;;;2.80;1.08;;;;;;;11.93;80.08;101546.88;5064930;28;20059;-73
2021/04/14 13:56:48;;;;;;;1.65;0.90;;;;;;;11.77;79.57;101538.59;5072893;27;20064;-73
2021/04/14 13:59:54;;;;;;;2.22;0.88;;;;;;;11.98;82.45;101543.53;5072755;27;20067;-73
2021/04/14 14:02:58;;;;;;;1.75;0.95;;;;;;;12.24;77.19;101532.38;5072104;27;20060;-73
2021/04/14 14:06:08;;;;;;;0.98;0.75;;;;;;;12.05;76.36;101526.56;5065398;28;20064;-73
2021/04/14 14:09:18;;;;;;;1.75;0.95;;;;;;;11.97;80.34;101533.63;5065749;28;20056;-73
2021/04/14 14:12:25;;;;;;;2.35;0.70;;;;;;;11.73;80.28;101537.91;5064943;28;20060;-74
2021/04/14 14:15:35;;;;;;;2.08;1.00;;;;;;;11.43;80.98;101535.56;5065588;28;20526;-74
2021/04/14 14:18:55;;;;;;;1.00;0.60;;;;;;;11.15;83.22;101530.75;5052751;28;20115;-74
2021/04/14 14:22:00;;;;;;;3.93;0.87;;;;;;;10.90;85.54;101538.94;5052468;28;20410;-73
2021/04/14 14:25:05;;;;;;;2.10;1.17;;;;;;;10.83;89.66;101536.38;5051773;28;20406;-73
2021/04/14 14:28:09;;;;;;;1.27;0.85;;;;;;;10.82;93.32;101540.34;5051562;28;20052;-74
2021/04/14 14:31:14;;;;;;;2.33;0.68;;;;;;;10.77;96.01;101536.09;5052267;28;20094;-74
2021/04/14 14:34:18;;;;;;;1.80;0.80;;;;;;;10.74;93.83;101538.97;5050711;28;20052;-74
2021/04/14 14:37:29;;;;;;;7.22;1.08;;;;;;;10.78;95.64;101536.88;5052076;28;20056;-73
2021/04/14 14:40:35;;;;;;;1.58;0.85;;;;;;;10.94;94.25;101531.28;5052436;28;20060;-74
2021/04/14 14:43:44;;;;;;;3.90;0.73;;;;;;;11.16;91.78;101521.13;5050564;28;20064;-74
2021/04/14 14:46:49;;;;;;;1.40;1.05;;;;;;;11.52;87.82;101515.38;5051954;28;20072;-75
2021/04/14 14:49:58;;;;;;;1.27;0.90;;;;;;;12.12;84.74;101515.19;5051609;28;20060;-73
2021/04/14 14:53:07;;;;;;;2.47;1.25;;;;;;;12.60;82.27;101524.47;5052058;28;20115;-74
2021/04/14 14:56:14;;;;;;;7.80;1.60;;;;;;;12.78;77.76;101510.66;5051626;28;20060;-74
2021/04/14 14:59:29;;;;;;;2.60;1.08;;;;;;;12.45;74.40;101520.56;5050911;28;20060;-74
2021/04/14 15:02:36;;;;;;;0.52;0.50;;;;;;;12.12;76.94;101504.03;5051401;28;20060;-74
2021/04/14 15:05:40;;;;;;;10.45;0.60;;;;;;;11.80;80.63;101495.81;5051708;28;20060;-74
2021/04/14 15:08:44;;;;;;;0.98;0.47;;;;;;;11.66;85.01;101498.22;5050339;28;20080;-74
2021/04/14 15:11:50;;;;;;;1.13;0.73;;;;;;;11.94;82.79;101498.19;5050732;28;20060;-74
2021/04/14 15:14:53;;;;;;;5.30;0.70;;;;;;;12.16;77.13;101504.69;5051147;28;20060;-73
2021/04/14 15:17:57;;;;;;;1.67;0.80;;;;;;;12.22;75.90;101506.91;5050784;28;20525;-73
2021/04/14 15:21:03;;;;;;;2.10;0.90;;;;;;;12.00;73.72;101502.00;5051237;28;20055;-73